createdAt,value
2018-06-14T00:00:41.062Z,2.20
2018-06-14T00:02:16.681Z,2.13
2018-06-14T00:03:52.674Z,2.40
2018-06-14T00:05:28.279Z,2.40
2018-06-14T00:07:05.106Z,2.20
2018-06-14T00:08:40.702Z,2.33
2018-06-14T00:10:16.324Z,2.13
2018-06-14T00:11:51.892Z,2.03
2018-06-14T00:13:27.508Z,1.90
2018-06-14T00:15:03.208Z,1.80
2018-06-14T00:16:38.832Z,1.97
2018-06-14T00:18:14.428Z,1.80
2018-06-14T00:19:50.075Z,1.70
2018-06-14T00:21:25.683Z,2.17
2018-06-14T00:23:01.329Z,1.80
2018-06-14T00:24:36.930Z,1.83
2018-06-14T00:26:12.546Z,2.00
2018-06-14T00:27:48.138Z,1.97
2018-06-14T00:29:23.752Z,1.70
2018-06-14T00:30:59.356Z,1.70
2018-06-14T00:32:34.936Z,1.77
2018-06-14T00:34:10.554Z,1.87
2018-06-14T00:35:46.124Z,1.93
2018-06-14T00:37:21.948Z,2.10
2018-06-14T00:38:57.487Z,2.20
2018-06-14T00:40:33.239Z,2.07
2018-06-14T00:42:08.875Z,1.70
2018-06-14T00:43:44.417Z,1.93
2018-06-14T00:45:20.015Z,1.70
2018-06-14T00:46:55.603Z,1.90
2018-06-14T00:48:31.183Z,2.00
2018-06-14T00:50:06.775Z,1.90
2018-06-14T00:51:42.396Z,1.70
2018-06-14T00:53:17.980Z,1.97
2018-06-14T00:54:53.574Z,2.10
2018-06-14T00:56:31.277Z,1.93
2018-06-14T00:58:06.858Z,1.90
2018-06-14T00:59:42.560Z,2.10
2018-06-14T01:01:18.244Z,2.20
2018-06-14T01:02:53.883Z,1.93
2018-06-14T01:04:29.623Z,2.50
2018-06-14T01:06:05.306Z,2.43
2018-06-14T01:07:40.893Z,1.93
2018-06-14T01:09:16.523Z,2.00
2018-06-14T01:10:52.111Z,2.13
2018-06-14T01:12:27.746Z,2.00
2018-06-14T01:14:03.325Z,1.87
2018-06-14T01:15:38.942Z,1.90
2018-06-14T01:17:14.526Z,1.93
2018-06-14T01:18:50.104Z,1.70
2018-06-14T01:20:25.676Z,1.90
2018-06-14T01:22:01.285Z,1.87
2018-06-14T01:23:36.862Z,2.07
2018-06-14T01:25:12.518Z,2.10
2018-06-14T01:26:48.117Z,2.10
2018-06-14T01:28:23.736Z,2.30
2018-06-14T01:29:59.330Z,2.13
2018-06-14T01:31:34.942Z,1.93
2018-06-14T01:33:10.608Z,2.10
2018-06-14T01:34:46.162Z,2.00
2018-06-14T01:36:21.851Z,2.20
2018-06-14T01:38:08.519Z,2.13
2018-06-14T01:39:44.161Z,2.07
2018-06-14T01:41:19.816Z,2.20
2018-06-14T01:42:55.395Z,2.13
2018-06-14T01:44:31.003Z,2.20
2018-06-14T01:46:06.602Z,2.17
2018-06-14T01:47:42.188Z,2.90
2018-06-14T01:49:18.084Z,2.50
2018-06-14T01:50:53.649Z,2.30
2018-06-14T01:52:29.287Z,2.10
2018-06-14T01:54:04.899Z,2.27
2018-06-14T01:55:40.553Z,2.40
2018-06-14T01:57:16.159Z,2.60
2018-06-14T01:58:51.723Z,2.60
2018-06-14T02:00:27.337Z,2.33
2018-06-14T02:02:02.913Z,2.50
2018-06-14T02:03:38.526Z,2.40
2018-06-14T02:05:14.303Z,2.60
2018-06-14T02:06:49.870Z,2.10
2018-06-14T02:08:25.491Z,2.50
2018-06-14T02:10:01.167Z,2.40
2018-06-14T02:11:36.777Z,2.70
2018-06-14T02:13:12.360Z,2.03
2018-06-14T02:14:49.013Z,2.30
2018-06-14T02:16:24.685Z,2.00
2018-06-14T02:18:00.554Z,2.10
2018-06-14T02:19:36.237Z,2.40
2018-06-14T02:21:11.848Z,2.43
2018-06-14T02:22:47.429Z,2.43
2018-06-14T02:24:23.302Z,2.53
2018-06-14T02:25:58.895Z,2.50
2018-06-14T02:27:34.503Z,2.50
2018-06-14T02:29:10.152Z,2.30
2018-06-14T02:30:45.792Z,2.20
2018-06-14T02:32:21.433Z,2.53
2018-06-14T02:33:57.003Z,2.10
2018-06-14T02:35:32.579Z,2.40
2018-06-14T02:37:08.214Z,2.27
2018-06-14T02:38:43.825Z,2.40
2018-06-14T02:40:19.417Z,2.57
2018-06-14T02:41:55.069Z,2.40
2018-06-14T02:43:30.677Z,2.13
2018-06-14T02:45:06.531Z,2.30
2018-06-14T02:46:42.106Z,2.10
2018-06-14T02:48:18.094Z,2.30
2018-06-14T02:49:53.691Z,2.30
2018-06-14T02:51:29.325Z,2.40
2018-06-14T02:53:04.853Z,2.40
2018-06-14T02:54:40.416Z,2.13
2018-06-14T02:56:15.997Z,2.23
2018-06-14T02:57:51.596Z,2.50
2018-06-14T02:59:27.207Z,2.40
2018-06-14T03:01:02.823Z,2.70
2018-06-14T03:02:38.406Z,2.50
2018-06-14T03:04:13.973Z,2.30
2018-06-14T03:05:49.566Z,2.93
2018-06-14T03:07:30.377Z,2.53
2018-06-14T03:09:07.710Z,2.47
2018-06-14T03:10:43.255Z,2.60
2018-06-14T03:12:18.816Z,2.60
2018-06-14T03:13:54.341Z,2.60
2018-06-14T03:15:29.988Z,2.37
2018-06-14T03:17:05.621Z,2.43
2018-06-14T03:18:41.205Z,2.30
2018-06-14T03:20:20.072Z,2.70
2018-06-14T03:21:55.656Z,2.80
2018-06-14T03:23:31.662Z,2.40
2018-06-14T03:25:07.206Z,2.70
2018-06-14T03:26:42.811Z,2.27
2018-06-14T03:28:18.379Z,2.50
2018-06-14T03:29:53.978Z,2.70
2018-06-14T03:31:29.624Z,2.30
2018-06-14T03:33:05.195Z,2.53
2018-06-14T03:34:40.769Z,2.60
2018-06-14T03:36:16.340Z,2.77
2018-06-14T03:37:51.986Z,2.43
2018-06-14T03:39:27.635Z,2.70
2018-06-14T03:41:03.243Z,2.63
2018-06-14T03:42:42.766Z,2.50
2018-06-14T03:44:18.333Z,2.67
2018-06-14T03:45:53.894Z,2.17
2018-06-14T03:47:29.561Z,2.20
2018-06-14T03:49:05.221Z,2.77
2018-06-14T03:50:40.786Z,2.70
2018-06-14T03:52:16.368Z,2.33
2018-06-14T03:53:53.109Z,2.47
2018-06-14T03:55:28.768Z,2.30
2018-06-14T03:57:04.399Z,2.20
2018-06-14T03:58:39.983Z,2.30
2018-06-14T04:00:15.603Z,2.37
2018-06-14T04:01:51.218Z,2.33
2018-06-14T04:03:26.768Z,2.17
2018-06-14T04:05:02.848Z,2.40
2018-06-14T04:06:38.410Z,2.80
2018-06-14T04:08:13.997Z,2.10
2018-06-14T04:09:49.592Z,2.20
2018-06-14T04:11:25.123Z,2.10
2018-06-14T04:13:00.686Z,2.40
2018-06-14T04:14:36.250Z,2.40
2018-06-14T04:16:11.984Z,1.97
2018-06-14T04:17:51.706Z,2.20
2018-06-14T04:19:28.267Z,1.77
2018-06-14T04:21:03.803Z,2.10
2018-06-14T04:22:39.420Z,2.40
2018-06-14T04:24:14.941Z,2.10
2018-06-14T04:25:50.464Z,1.90
2018-06-14T04:27:25.996Z,1.93
2018-06-14T04:29:01.603Z,2.40
2018-06-14T04:30:37.506Z,2.03
2018-06-14T04:32:13.372Z,2.17
2018-06-14T04:33:49.116Z,1.90
2018-06-14T04:35:24.712Z,2.57
2018-06-14T04:37:00.280Z,2.30
2018-06-14T04:38:35.894Z,2.30
2018-06-14T04:40:11.448Z,2.40
2018-06-14T04:41:46.971Z,2.70
2018-06-14T04:43:22.676Z,2.70
2018-06-14T04:45:00.717Z,2.37
2018-06-14T04:46:38.277Z,2.70
2018-06-14T04:48:14.197Z,2.40
2018-06-14T04:49:50.008Z,2.37
2018-06-14T04:51:25.677Z,2.30
2018-06-14T04:53:04.758Z,2.47
2018-06-14T04:54:41.443Z,2.37
2018-06-14T04:56:18.007Z,2.00
2018-06-14T04:57:53.604Z,2.93
2018-06-14T04:59:29.215Z,2.27
2018-06-14T05:01:06.066Z,2.17
2018-06-14T05:02:42.019Z,2.20
2018-06-14T05:04:17.587Z,2.33
2018-06-14T05:05:53.999Z,2.17
2018-06-14T05:07:29.813Z,2.77
2018-06-14T05:09:09.724Z,2.27
2018-06-14T05:10:45.475Z,2.20
2018-06-14T05:12:22.494Z,2.27
2018-06-14T05:13:58.200Z,2.10
2018-06-14T05:15:34.141Z,2.03
2018-06-14T05:17:11.031Z,2.00
2018-06-14T05:18:46.709Z,2.20
2018-06-14T05:20:22.729Z,2.37
2018-06-14T05:21:58.462Z,2.50
2018-06-14T05:23:34.140Z,2.40
2018-06-14T05:25:09.760Z,2.20
2018-06-14T05:26:45.383Z,2.30
2018-06-14T05:28:21.056Z,2.23
2018-06-14T05:29:56.686Z,2.00
2018-06-14T05:31:32.318Z,2.40
2018-06-14T05:33:07.966Z,2.20
2018-06-14T05:34:43.655Z,2.67
2018-06-14T05:36:19.269Z,2.20
2018-06-14T05:37:54.873Z,2.43
2018-06-14T05:39:30.508Z,2.37
2018-06-14T05:41:06.502Z,2.00
2018-06-14T05:42:42.245Z,2.40
2018-06-14T05:44:17.923Z,2.47
2018-06-14T05:45:53.534Z,2.20
2018-06-14T05:47:29.432Z,2.30
2018-06-14T05:49:06.548Z,2.50
2018-06-14T05:50:42.111Z,2.30
2018-06-14T05:52:17.720Z,2.60
2018-06-14T05:53:53.327Z,2.50
2018-06-14T05:55:30.095Z,2.13
2018-06-14T05:57:05.714Z,2.13
2018-06-14T05:58:41.548Z,2.30
2018-06-14T06:00:19.610Z,2.73
2018-06-14T06:01:55.237Z,2.37
2018-06-14T06:03:30.936Z,2.13
2018-06-14T06:05:06.741Z,2.40
2018-06-14T06:06:42.409Z,2.40
2018-06-14T06:08:18.024Z,2.63
2018-06-14T06:09:53.684Z,2.80
2018-06-14T06:11:29.296Z,2.50
2018-06-14T06:13:11.207Z,2.30
2018-06-14T06:14:46.845Z,2.47
2018-06-14T06:16:22.557Z,2.50
2018-06-14T06:24:18.532Z,2.77
2018-06-14T06:25:54.147Z,2.47
2018-06-14T06:27:29.843Z,2.40
2018-06-14T06:29:05.499Z,2.60
2018-06-14T06:30:41.842Z,2.50
2018-06-14T06:32:17.734Z,2.37
2018-06-14T06:33:53.355Z,2.77
2018-06-14T06:35:29.142Z,2.90
2018-06-14T06:37:04.875Z,2.47
2018-06-14T06:38:41.630Z,2.30
2018-06-14T06:40:18.112Z,2.60
2018-06-14T06:41:53.857Z,2.20
2018-06-14T06:43:29.584Z,2.50
2018-06-14T06:45:06.813Z,2.33
2018-06-14T06:46:43.834Z,2.47
2018-06-14T06:48:19.720Z,2.27
2018-06-14T06:49:55.316Z,2.23
2018-06-14T06:51:31.200Z,2.10
2018-06-14T06:53:06.992Z,2.40
2018-06-14T06:54:43.325Z,2.93
2018-06-14T06:56:19.062Z,2.50
2018-06-14T06:57:54.783Z,2.27
2018-06-14T06:59:30.467Z,2.20
2018-06-14T07:01:06.089Z,2.30
2018-06-14T07:02:41.754Z,2.80
2018-06-14T07:04:17.478Z,2.23
2018-06-14T07:05:53.187Z,2.33
2018-06-14T07:07:28.781Z,2.00
2018-06-14T07:09:07.687Z,2.37
2018-06-14T07:10:43.355Z,2.27
2018-06-14T07:12:19.097Z,2.20
2018-06-14T07:13:54.754Z,1.97
2018-06-14T07:15:30.705Z,2.30
2018-06-14T07:17:09.133Z,2.40
2018-06-14T07:18:45.752Z,2.20
2018-06-14T07:20:21.404Z,2.40
2018-06-14T07:22:01.214Z,2.33
2018-06-14T07:23:38.811Z,2.80
2018-06-14T07:25:14.553Z,2.40
2018-06-14T07:26:51.098Z,2.27
2018-06-14T07:28:26.785Z,2.43
2018-06-14T07:30:02.396Z,2.30
2018-06-14T07:31:38.072Z,2.20
2018-06-14T07:33:14.407Z,2.40
2018-06-14T07:34:50.036Z,2.30
2018-06-14T07:36:25.699Z,2.77
2018-06-14T07:38:01.383Z,3.23
2018-06-14T07:39:39.639Z,2.60
2018-06-14T07:41:15.388Z,2.37
2018-06-14T07:42:51.089Z,3.07
2018-06-14T07:44:26.826Z,3.20
2018-06-14T07:46:02.628Z,2.50
2018-06-14T07:47:38.549Z,2.80
2018-06-14T07:49:14.190Z,2.50
2018-06-14T07:50:50.399Z,2.40
2018-06-14T07:52:28.600Z,2.13
2018-06-14T07:54:04.397Z,2.40
2018-06-14T07:55:40.769Z,2.50
2018-06-14T07:57:16.609Z,2.57
2018-06-14T07:58:53.174Z,2.70
2018-06-14T08:00:29.509Z,2.10
2018-06-14T08:02:05.970Z,2.10
2018-06-14T08:03:42.777Z,1.97
2018-06-14T08:05:18.733Z,2.13
2018-06-14T08:06:54.537Z,2.30
2018-06-14T08:08:31.348Z,2.53
2018-06-14T08:10:07.661Z,2.17
2018-06-14T08:11:43.418Z,2.07
2018-06-14T08:13:19.513Z,2.20
2018-06-14T08:14:55.163Z,2.13
2018-06-14T08:16:30.849Z,2.23
2018-06-14T08:18:07.123Z,2.13
2018-06-14T08:19:44.305Z,2.20
2018-06-14T08:21:20.096Z,1.53
2018-06-14T08:22:55.668Z,1.67
2018-06-14T08:24:31.296Z,1.90
2018-06-14T08:26:13.144Z,1.77
2018-06-14T08:27:48.771Z,2.13
2018-06-14T08:29:27.872Z,1.90
2018-06-14T08:31:03.556Z,1.77
2018-06-14T08:32:39.152Z,1.70
2018-06-14T08:34:14.820Z,1.30
2018-06-14T08:35:50.444Z,1.90
2018-06-14T08:37:28.295Z,1.93
2018-06-14T08:39:05.410Z,2.10
2018-06-14T08:40:41.069Z,1.93
2018-06-14T08:42:16.640Z,1.90
2018-06-14T08:43:52.207Z,1.80
2018-06-14T08:45:27.897Z,1.67
2018-06-14T08:47:03.552Z,1.60
2018-06-14T08:48:39.499Z,1.77
2018-06-14T08:50:15.072Z,2.07
2018-06-14T08:51:50.748Z,1.87
2018-06-14T08:53:26.372Z,1.80
2018-06-14T08:55:02.307Z,1.53
2018-06-14T08:56:37.871Z,1.50
2018-06-14T08:58:13.464Z,1.60
2018-06-14T08:59:49.132Z,1.80
2018-06-14T09:01:24.740Z,1.80
2018-06-14T09:03:00.312Z,1.60
2018-06-14T09:04:35.931Z,1.80
2018-06-14T09:06:11.600Z,1.70
2018-06-14T09:07:47.219Z,2.10
2018-06-14T09:09:23.017Z,1.90
2018-06-14T09:10:58.632Z,1.50
2018-06-14T09:12:34.222Z,1.83
2018-06-14T09:14:10.578Z,1.80
2018-06-14T09:15:46.208Z,1.40
2018-06-14T09:17:21.938Z,1.73
2018-06-14T09:18:57.581Z,1.60
2018-06-14T09:20:35.299Z,1.60
2018-06-14T09:22:10.951Z,1.70
2018-06-14T09:23:46.537Z,1.67
2018-06-14T09:25:22.184Z,1.50
2018-06-14T09:26:57.786Z,1.60
2018-06-14T09:28:34.091Z,1.73
2018-06-14T09:30:09.961Z,1.80
2018-06-14T09:31:45.517Z,1.80
2018-06-14T09:33:21.089Z,1.90
2018-06-14T09:34:56.688Z,1.40
2018-06-14T09:36:33.382Z,1.77
2018-06-14T09:38:09.889Z,1.70
2018-06-14T09:39:45.551Z,1.77
2018-06-14T09:41:21.211Z,2.03
2018-06-14T09:42:56.946Z,1.70
2018-06-14T09:44:32.467Z,1.50
2018-06-14T09:46:08.086Z,1.40
2018-06-14T09:47:43.748Z,1.50
2018-06-14T09:49:19.388Z,1.30
2018-06-14T09:50:56.452Z,1.83
2018-06-14T09:52:32.176Z,1.60
2018-06-14T09:54:07.883Z,2.00
2018-06-14T09:55:43.936Z,1.60
2018-06-14T09:57:19.637Z,1.60
2018-06-14T09:58:56.985Z,1.50
2018-06-14T10:00:32.539Z,1.60
2018-06-14T10:02:07.935Z,1.57
2018-06-14T10:03:43.547Z,1.87
2018-06-14T10:05:19.242Z,1.57
2018-06-14T10:06:54.909Z,1.60
2018-06-14T10:08:30.543Z,1.63
2018-06-14T10:10:06.256Z,1.70
2018-06-14T10:11:41.885Z,1.80
2018-06-14T10:13:17.539Z,2.53
2018-06-14T10:14:53.117Z,1.90
2018-06-14T10:16:28.780Z,1.93
2018-06-14T10:18:04.396Z,1.60
2018-06-14T10:25:56.231Z,1.70
2018-06-14T10:27:32.038Z,1.40
2018-06-14T10:29:07.682Z,1.57
2018-06-14T10:30:43.286Z,1.70
2018-06-14T10:32:19.030Z,1.60
2018-06-14T10:33:54.652Z,1.80
2018-06-14T10:35:30.292Z,1.80
2018-06-14T10:37:06.369Z,1.57
2018-06-14T10:38:42.541Z,1.60
2018-06-14T10:40:18.439Z,1.97
2018-06-14T10:41:54.169Z,2.00
2018-06-14T10:43:29.953Z,1.43
2018-06-14T10:45:05.592Z,1.70
2018-06-14T10:50:53.987Z,1.60
2018-06-14T10:52:29.597Z,2.00
2018-06-14T10:54:05.249Z,1.70
2018-06-14T10:55:40.941Z,1.87
2018-06-14T10:57:17.128Z,2.10
2018-06-14T10:58:53.760Z,2.00
2018-06-14T11:00:29.580Z,1.90
2018-06-14T11:02:06.314Z,2.03
2018-06-14T11:03:43.021Z,2.03
2018-06-14T11:05:18.664Z,1.87
2018-06-14T11:06:55.265Z,1.73
2018-06-14T11:08:31.712Z,1.40
2018-06-14T11:10:07.385Z,1.30
2018-06-14T11:11:43.721Z,1.70
2018-06-14T11:13:20.664Z,1.90
2018-06-14T11:14:57.488Z,1.70
2018-06-14T11:16:33.152Z,1.60
2018-06-14T11:18:09.578Z,1.70
2018-06-14T11:19:45.482Z,1.70
2018-06-14T11:21:21.142Z,1.40
2018-06-14T11:22:56.848Z,1.70
2018-06-14T11:24:32.542Z,1.90
2018-06-14T11:26:12.509Z,1.70
2018-06-14T11:27:52.265Z,1.70
2018-06-14T11:29:28.096Z,1.30
2018-06-14T11:31:03.731Z,1.90
2018-06-14T11:32:39.468Z,1.60
2018-06-14T11:34:17.018Z,1.60
2018-06-14T11:35:56.085Z,1.50
2018-06-14T11:37:34.100Z,1.70
2018-06-14T11:39:10.820Z,1.60
2018-06-14T11:40:47.483Z,1.70
2018-06-14T11:42:23.287Z,1.90
2018-06-14T11:43:59.211Z,1.60
2018-06-14T11:45:35.157Z,1.40
2018-06-14T11:47:10.965Z,1.33
2018-06-14T11:48:47.918Z,1.60
2018-06-14T11:50:24.025Z,1.50
2018-06-14T11:51:59.770Z,1.50
2018-06-14T11:53:35.445Z,1.60
2018-06-14T11:55:11.871Z,1.90
2018-06-14T11:56:47.956Z,1.60
2018-06-14T11:58:23.595Z,1.40
2018-06-14T11:59:59.206Z,1.87
2018-06-14T12:01:35.012Z,1.30
2018-06-14T12:03:10.801Z,1.70
2018-06-14T12:04:46.516Z,1.50
2018-06-14T12:06:22.341Z,1.60
2018-06-14T12:07:57.945Z,1.20
2018-06-14T12:09:34.505Z,1.23
2018-06-14T12:11:10.693Z,1.30
2018-06-14T12:12:48.835Z,1.60
2018-06-14T12:16:30.531Z,1.53
2018-06-14T12:18:06.174Z,1.20
2018-06-14T12:19:41.770Z,1.67
2018-06-14T12:21:18.660Z,1.60
2018-06-14T12:22:55.051Z,1.40
2018-06-14T12:24:32.464Z,1.57
2018-06-14T12:26:09.140Z,1.30
2018-06-14T12:27:47.408Z,2.27
2018-06-14T12:29:23.028Z,1.60
2018-06-14T12:30:58.665Z,1.40
2018-06-14T12:32:34.331Z,1.30
2018-06-14T12:34:11.156Z,1.57
2018-06-14T12:35:46.751Z,1.53
2018-06-14T12:37:22.431Z,1.50
2018-06-14T12:38:58.040Z,1.47
2018-06-14T12:40:34.633Z,1.30
2018-06-14T12:42:10.378Z,1.53
2018-06-14T12:43:47.737Z,1.80
2018-06-14T12:45:23.395Z,1.70
2018-06-14T12:46:59.224Z,1.70
2018-06-14T12:48:34.886Z,1.27
2018-06-14T12:50:10.772Z,1.47
2018-06-14T12:51:47.857Z,1.40
2018-06-14T12:53:23.603Z,1.57
2018-06-14T12:55:13.628Z,1.50
2018-06-14T12:56:49.601Z,1.50
2018-06-14T12:58:25.603Z,1.70
2018-06-14T13:00:02.248Z,1.60
2018-06-14T13:01:37.972Z,1.60
2018-06-14T13:03:13.849Z,1.60
2018-06-14T13:04:49.571Z,1.40
2018-06-14T13:06:26.338Z,1.60
2018-06-14T13:08:02.016Z,1.87
2018-06-14T13:09:38.825Z,1.63
2018-06-14T13:11:14.561Z,1.80
2018-06-14T13:12:50.225Z,1.67
2018-06-14T13:16:49.988Z,1.70
2018-06-14T13:18:26.146Z,1.33
2018-06-14T13:20:02.548Z,1.30
2018-06-14T13:21:43.786Z,1.30
2018-06-14T13:23:20.689Z,1.43
2018-06-14T13:24:56.838Z,1.67
2018-06-14T13:26:33.844Z,1.60
2018-06-14T13:28:09.482Z,1.40
2018-06-14T13:29:45.262Z,1.20
2018-06-14T13:31:21.222Z,1.60
2018-06-14T13:32:56.941Z,1.80
2018-06-14T13:34:33.227Z,1.40
2018-06-14T13:36:15.317Z,1.47
2018-06-14T13:37:51.531Z,1.53
2018-06-14T13:39:28.291Z,1.30
2018-06-14T13:41:04.349Z,1.57
2018-06-14T13:42:41.522Z,1.70
2018-06-14T13:44:23.541Z,1.50
2018-06-14T13:45:59.207Z,1.43
2018-06-14T13:47:43.296Z,1.30
2018-06-14T13:49:20.098Z,1.30
2018-06-14T13:50:56.013Z,1.40
2018-06-14T13:52:46.557Z,1.60
2018-06-14T13:54:23.335Z,1.47
2018-06-14T13:56:02.329Z,1.30
2018-06-14T13:57:44.407Z,1.37
2018-06-14T14:01:11.756Z,1.50
2018-06-14T14:02:49.769Z,1.60
2018-06-14T14:04:27.678Z,1.40
2018-06-14T14:06:03.952Z,1.33
2018-06-14T14:07:39.617Z,1.40
2018-06-14T14:09:15.974Z,1.53
2018-06-14T14:10:52.482Z,1.40
2018-06-14T14:12:29.313Z,1.40
2018-06-14T14:14:05.166Z,1.47
2018-06-14T14:15:41.140Z,1.40
2018-06-14T14:17:18.221Z,1.30
2018-06-14T14:18:54.255Z,1.60
2018-06-14T14:20:30.944Z,1.50
2018-06-14T14:22:06.768Z,1.70
2018-06-14T14:23:42.991Z,1.10
2018-06-14T14:25:19.390Z,1.17
2018-06-14T14:26:55.005Z,1.10
2018-06-14T14:28:30.812Z,1.47
2018-06-14T14:30:06.418Z,8.97
2018-06-14T14:31:44.138Z,2.67
2018-06-14T14:33:20.918Z,1.07
2018-06-14T14:34:56.522Z,1.30
2018-06-14T14:36:32.120Z,1.30
2018-06-14T14:38:07.862Z,1.40
2018-06-14T14:39:43.985Z,1.60
2018-06-14T14:41:19.898Z,1.20
2018-06-14T14:42:55.548Z,1.40
2018-06-14T14:44:31.937Z,1.30
2018-06-14T14:46:07.539Z,1.40
2018-06-14T14:47:44.342Z,1.40
2018-06-14T14:49:20.258Z,1.10
2018-06-14T14:50:56.265Z,1.20
2018-06-14T14:52:31.992Z,1.30
2018-06-14T14:54:07.625Z,1.10
2018-06-14T14:55:43.239Z,1.70
2018-06-14T14:57:18.996Z,1.33
2018-06-14T14:58:55.436Z,1.50
2018-06-14T15:00:31.504Z,1.30
2018-06-14T15:02:08.074Z,1.07
2018-06-14T15:03:43.684Z,1.27
2018-06-14T15:05:19.392Z,1.30
2018-06-14T15:06:55.008Z,1.30
2018-06-14T15:08:30.843Z,1.30
2018-06-14T15:10:06.513Z,1.00
2018-06-14T15:11:42.470Z,1.30
2018-06-14T15:13:18.820Z,1.27
2018-06-14T15:14:54.678Z,1.27
2018-06-14T15:16:33.476Z,1.30
2018-06-14T15:18:09.191Z,1.30
2018-06-14T15:19:44.884Z,1.47
2018-06-14T15:21:20.594Z,1.50
2018-06-14T15:22:57.045Z,1.50
2018-06-14T15:24:33.820Z,1.47
2018-06-14T15:26:09.419Z,1.20
2018-06-14T15:29:52.459Z,1.20
2018-06-14T15:31:28.979Z,1.50
2018-06-14T15:33:05.857Z,1.30
2018-06-14T15:34:42.032Z,1.20
2018-06-14T15:36:18.048Z,1.03
2018-06-14T15:37:53.911Z,1.27
2018-06-14T15:39:30.956Z,1.43
2018-06-14T15:41:06.661Z,1.47
2018-06-14T15:42:42.381Z,1.23
2018-06-14T15:44:19.369Z,1.13
2018-06-14T15:45:55.024Z,1.40
2018-06-14T15:47:31.529Z,1.33
2018-06-14T15:49:08.349Z,1.70
2018-06-14T15:50:44.047Z,1.30
2018-06-14T15:52:19.818Z,1.20
2018-06-14T15:53:56.911Z,1.43
2018-06-14T15:56:01.007Z,1.33
2018-06-14T15:57:37.355Z,1.20
2018-06-14T15:59:14.653Z,1.30
2018-06-14T16:00:51.751Z,1.20
2018-06-14T16:02:28.042Z,1.37
2018-06-14T16:04:04.531Z,1.23
2018-06-14T16:05:41.702Z,1.10
2018-06-14T16:07:17.417Z,1.37
2018-06-14T16:08:53.375Z,1.30
2018-06-14T16:10:31.090Z,1.40
2018-06-14T16:12:11.582Z,1.40
2018-06-14T16:13:49.360Z,1.30
2018-06-14T16:15:25.855Z,1.47
2018-06-14T16:17:02.422Z,1.30
2018-06-14T16:18:38.452Z,1.40
2018-06-14T16:20:20.597Z,1.77
2018-06-14T16:21:57.270Z,1.30
2018-06-14T16:23:33.021Z,1.50
2018-06-14T16:25:09.179Z,1.40
2018-06-14T16:26:45.548Z,1.50
2018-06-14T16:28:27.038Z,1.37
2018-06-14T16:30:04.332Z,1.30
2018-06-14T16:31:40.074Z,1.47
2018-06-14T16:33:15.736Z,1.30
2018-06-14T16:34:51.519Z,1.37
2018-06-14T16:36:28.134Z,1.50
2018-06-14T16:38:03.961Z,1.17
2018-06-14T16:39:40.271Z,1.13
2018-06-14T16:41:16.346Z,1.30
2018-06-14T16:42:52.163Z,1.33
2018-06-14T16:44:27.797Z,1.37
2018-06-14T16:46:04.154Z,1.03
2018-06-14T16:47:39.757Z,1.40
2018-06-14T16:49:15.833Z,1.30
2018-06-14T16:50:51.517Z,1.20
2018-06-14T16:52:27.458Z,1.30
2018-06-14T16:54:03.821Z,1.30
2018-06-14T16:55:39.395Z,1.20
2018-06-14T16:57:15.237Z,1.30
2018-06-14T16:58:51.076Z,2.00
2018-06-14T17:00:26.790Z,1.73
2018-06-14T17:02:02.435Z,2.17
2018-06-14T17:03:38.170Z,1.80
2018-06-14T17:05:14.687Z,1.40
2018-06-14T17:06:50.235Z,1.30
2018-06-14T17:08:25.863Z,1.17
2018-06-14T17:10:02.352Z,2.30
2018-06-14T17:11:38.219Z,7.63
2018-06-14T17:13:14.612Z,4.90
2018-06-14T17:14:50.400Z,2.33
2018-06-14T17:16:26.322Z,1.40
2018-06-14T17:18:02.513Z,1.60
2018-06-14T17:19:38.467Z,1.20
2018-06-14T17:21:14.279Z,1.20
2018-06-14T17:22:50.177Z,1.20
2018-06-14T17:24:25.979Z,1.17
2018-06-14T17:26:06.075Z,1.40
2018-06-14T17:27:42.122Z,1.30
2018-06-14T17:29:23.396Z,1.20
2018-06-14T17:31:07.962Z,1.67
2018-06-14T17:32:44.677Z,1.67
2018-06-14T17:34:38.913Z,1.40
2018-06-14T17:36:18.567Z,1.60
2018-06-14T17:37:55.725Z,1.50
2018-06-14T17:39:33.696Z,1.30
2018-06-14T17:41:10.028Z,1.40
2018-06-14T17:42:47.806Z,1.20
2018-06-14T17:44:23.644Z,1.07
2018-06-14T17:48:19.594Z,1.30
2018-06-14T17:49:55.689Z,1.40
2018-06-14T17:51:55.130Z,1.43
2018-06-14T17:53:33.248Z,1.40
2018-06-14T17:55:10.182Z,1.57
2018-06-14T17:56:45.818Z,1.53
2018-06-14T17:58:21.776Z,1.80
2018-06-14T17:59:57.528Z,1.60
2018-06-14T18:01:33.200Z,1.70
2018-06-14T18:03:08.958Z,1.50
2018-06-14T18:04:44.804Z,1.50
2018-06-14T18:06:35.189Z,1.40
2018-06-14T18:08:17.500Z,1.60
2018-06-14T18:09:53.455Z,1.50
2018-06-14T18:11:29.192Z,1.47
2018-06-14T18:13:05.044Z,1.40
2018-06-14T18:14:40.810Z,1.77
2018-06-14T18:16:16.513Z,1.70
2018-06-14T18:18:02.280Z,1.33
2018-06-14T18:19:37.966Z,1.83
2018-06-14T18:21:13.611Z,2.20
2018-06-14T18:22:49.386Z,2.10
2018-06-14T18:24:25.050Z,1.90
2018-06-14T18:26:00.936Z,1.63
2018-06-14T18:27:37.686Z,1.63
2018-06-14T18:29:13.718Z,1.73
2018-06-14T18:30:49.334Z,1.70
2018-06-14T18:32:25.153Z,1.30
2018-06-14T18:34:00.964Z,1.80
2018-06-14T18:35:37.236Z,1.90
2018-06-14T18:37:13.692Z,1.67
2018-06-14T18:38:49.381Z,1.70
2018-06-14T18:40:25.285Z,1.67
2018-06-14T18:42:01.287Z,1.50
2018-06-14T18:43:37.130Z,1.67
2018-06-14T18:45:12.952Z,1.50
2018-06-14T18:46:49.033Z,1.87
2018-06-14T18:48:24.976Z,1.80
2018-06-14T18:50:00.792Z,1.70
2018-06-14T18:51:36.864Z,1.80
2018-06-14T18:53:13.745Z,1.40
2018-06-14T18:54:49.617Z,1.40
2018-06-14T18:56:25.902Z,1.37
2018-06-14T18:58:01.742Z,1.40
2018-06-14T18:59:40.996Z,1.50
2018-06-14T19:01:17.174Z,1.63
2018-06-14T19:02:54.481Z,2.77
2018-06-14T19:04:30.259Z,2.27
2018-06-14T19:06:07.234Z,1.80
2018-06-14T19:07:43.753Z,1.50
2018-06-14T19:09:19.616Z,1.60
2018-06-14T19:10:56.312Z,1.63
2018-06-14T19:12:32.180Z,1.43
2018-06-14T19:14:08.755Z,1.67
2018-06-14T19:15:45.462Z,1.50
2018-06-14T19:17:22.479Z,1.60
2018-06-14T19:18:58.976Z,1.60
2018-06-14T19:20:36.642Z,1.60
2018-06-14T19:22:12.625Z,1.30
2018-06-14T19:23:51.077Z,1.60
2018-06-14T19:25:27.047Z,1.70
2018-06-14T19:27:03.662Z,1.50
2018-06-14T19:28:39.352Z,1.50
2018-06-14T19:30:15.261Z,1.57
2018-06-14T19:31:51.984Z,1.57
2018-06-14T19:33:28.005Z,1.57
2018-06-14T19:35:05.871Z,1.60
2018-06-14T19:38:37.800Z,1.50
2018-06-14T19:40:21.947Z,1.50
2018-06-14T19:42:06.286Z,1.60
2018-06-14T19:43:42.214Z,1.70
2018-06-14T19:45:21.779Z,1.60
2018-06-14T19:46:58.897Z,1.40
2018-06-14T19:48:35.621Z,1.60
2018-06-14T19:50:12.748Z,1.87
2018-06-14T19:53:54.659Z,1.50
2018-06-14T19:55:30.879Z,1.37
2018-06-14T19:57:07.222Z,1.60
2018-06-14T19:58:42.949Z,1.80
2018-06-14T20:00:19.450Z,1.60
2018-06-14T20:01:56.014Z,1.60
2018-06-14T20:03:31.934Z,1.70
2018-06-14T20:05:08.105Z,1.43
2018-06-14T20:06:45.847Z,1.50
2018-06-14T20:08:25.571Z,1.60
2018-06-14T20:10:02.607Z,1.57
2018-06-14T20:11:38.670Z,1.53
2018-06-14T20:13:15.788Z,1.73
2018-06-14T20:15:00.571Z,1.50
2018-06-14T20:16:38.393Z,1.53
2018-06-14T20:20:24.111Z,2.03
2018-06-14T20:21:59.923Z,1.90
2018-06-14T20:23:35.748Z,1.73
2018-06-14T20:25:11.843Z,1.87
2018-06-14T20:26:52.186Z,1.97
2018-06-14T20:28:28.118Z,1.90
2018-06-14T20:30:03.717Z,1.70
2018-06-14T20:31:39.563Z,1.93
2018-06-14T20:33:15.259Z,1.83
2018-06-14T20:34:50.969Z,1.87
2018-06-14T20:36:26.672Z,2.10
2018-06-14T20:38:02.413Z,2.10
2018-06-14T20:39:38.240Z,2.20
2018-06-14T20:41:14.297Z,2.10
2018-06-14T20:42:50.026Z,2.13
2018-06-14T20:44:25.866Z,1.83
2018-06-14T20:46:01.696Z,1.90
2018-06-14T20:47:37.481Z,1.70
2018-06-14T20:49:13.303Z,1.60
2018-06-14T20:50:49.297Z,1.60
2018-06-14T20:52:24.968Z,1.60
2018-06-14T20:54:00.970Z,1.50
2018-06-14T20:55:36.964Z,2.00
2018-06-14T20:57:12.918Z,1.70
2018-06-14T20:58:49.455Z,1.60
2018-06-14T21:00:25.250Z,1.53
2018-06-14T21:02:05.003Z,1.90
2018-06-14T21:03:41.503Z,1.87
2018-06-14T21:05:17.579Z,1.97
2018-06-14T21:06:54.271Z,1.90
2018-06-14T21:08:30.564Z,1.93
2018-06-14T21:10:06.350Z,2.00
2018-06-14T21:11:42.126Z,1.87
2018-06-14T21:13:17.929Z,1.87
2018-06-14T21:14:53.693Z,1.70
2018-06-14T21:16:36.458Z,1.77
2018-06-14T21:18:12.260Z,1.90
2018-06-14T21:19:47.945Z,1.63
2018-06-14T21:21:23.765Z,1.63
2018-06-14T21:22:59.844Z,1.63
2018-06-14T21:24:35.622Z,1.90
2018-06-14T21:26:12.650Z,1.90
2018-06-14T21:27:48.428Z,1.70
2018-06-14T21:29:24.183Z,1.80
2018-06-14T21:31:01.048Z,1.70
2018-06-14T21:32:37.657Z,1.90
2018-06-14T21:34:13.436Z,1.70
2018-06-14T21:35:49.151Z,1.70
2018-06-14T21:37:24.992Z,2.07
2018-06-14T21:39:00.954Z,1.70
2018-06-14T21:40:36.787Z,1.80
2018-06-14T21:42:13.552Z,1.87
2018-06-14T21:43:50.329Z,1.60
2018-06-14T21:45:26.265Z,1.80
2018-06-14T21:47:02.679Z,1.83
2018-06-14T21:48:38.526Z,1.93
2018-06-14T21:50:14.550Z,1.67
2018-06-14T21:51:50.326Z,1.90
2018-06-14T21:53:26.315Z,1.97
2018-06-14T21:55:02.431Z,2.33
2018-06-14T21:56:38.147Z,2.00